Sequoia National Park, California
Current Conditions -  °F | °C
As of 8:35 AM on Tuesday 21 Oct 2014 (Local Time) from KVIS Reporting Station
Clear Clear  
Wind Chill: 55°   Ceiling: Unl
Heat Index: 55°   Visibility: 10mi
Dew Point: 48°   Wind: 9mph
Humidity: 77%   Direction: 310°NW
Pressure: 30.09"   Gusts: NA
Location:  36.5932°N, 118.838°W
Report Text: KVIS 211535Z 31008KT 10SM CLR 13/09 A3009 RMK AO1
Loading
Personal Weather Stations






























Interactive Weather Map
Tropical Storm Tracking
New forecast layout! Learn more

10-Day Weather Forecast

Advertisements
Track Severe Weather on mobile